Time;durP1;ratioP1;P1;durP2;ratioP2;P2;SDS_P1;SDS_P2;PMS_P1;PMS_P2;Temp;Humidity;BMP_temperature;BMP_pressure;BME280_temperature;BME280_humidity;BME280_pressure;Samples;Min_cycle;Max_cycle;Signal;HPM_P1;HPM_P2
2020/12/07 00:01:57;;;;;;;18.92;12.23;;;;;;;1.74;87.31;98254.59;2212973;79;21699;-87
2020/12/07 00:04:58;;;;;;;19.07;13.32;;;;;;;1.70;87.29;98262.61;2204675;79;21744;-86
2020/12/07 00:08:00;;;;;;;19.02;13.35;;;;;;;1.70;87.33;98238.57;2150720;81;21580;-86
2020/12/07 00:11:02;;;;;;;21.35;12.33;;;;;;;1.70;87.19;98240.67;2222906;79;21279;-86
2020/12/07 00:14:03;;;;;;;19.75;13.30;;;;;;;1.68;87.19;98243.88;2192862;79;21139;-85
2020/12/07 00:17:04;;;;;;;21.52;13.98;;;;;;;1.65;87.19;98243.34;2193200;79;21235;-83
2020/12/07 00:20:05;;;;;;;21.77;13.85;;;;;;;1.67;87.10;98244.83;2213353;80;21671;-86
2020/12/07 00:23:10;;;;;;;19.30;12.82;;;;;;;1.64;87.10;98254.58;2215531;79;21230;-84
2020/12/07 00:26:10;;;;;;;16.97;12.05;;;;;;;1.60;87.22;98236.46;2218204;79;21270;-85
2020/12/07 00:29:12;;;;;;;23.57;13.98;;;;;;;1.58;87.16;98234.02;2199217;79;21262;-84
2020/12/07 00:32:13;;;;;;;17.35;11.53;;;;;;;1.52;87.32;98225.52;2216180;79;21262;-86
2020/12/07 00:35:15;;;;;;;20.72;11.97;;;;;;;1.47;87.45;98227.70;2218165;79;21294;-87
2020/12/07 00:38:17;;;;;;;20.40;12.30;;;;;;;1.47;87.39;98225.59;2214480;79;21254;-85
2020/12/07 00:41:18;;;;;;;21.55;12.10;;;;;;;1.42;87.43;98237.59;2205883;79;21254;-84
2020/12/07 00:44:19;;;;;;;17.50;10.88;;;;;;;1.35;87.51;98224.40;2204613;79;21709;-85
2020/12/07 00:47:20;;;;;;;20.52;12.80;;;;;;;1.31;87.53;98223.05;2190783;79;21231;-84
2020/12/07 00:50:21;;;;;;;19.02;13.08;;;;;;;1.26;87.83;98222.62;2183279;79;21159;-84
2020/12/07 00:53:23;;;;;;;20.70;11.70;;;;;;;1.23;87.84;98225.95;2223909;79;21269;-86
2020/12/07 00:56:24;;;;;;;21.48;12.53;;;;;;;1.18;87.90;98220.36;2182344;79;21639;-86
2020/12/07 00:59:25;;;;;;;13.80;9.73;;;;;;;1.17;88.09;98228.56;2177891;80;21269;-84
2020/12/07 01:02:26;;;;;;;22.73;12.63;;;;;;;1.19;87.95;98214.25;2197489;79;21679;-86
2020/12/07 01:05:27;;;;;;;17.42;10.58;;;;;;;1.13;88.18;98193.69;2216753;80;21277;-86
2020/12/07 01:08:28;;;;;;;23.47;13.78;;;;;;;1.14;88.02;98204.34;2205855;79;21261;-84
2020/12/07 01:11:30;;;;;;;36.68;16.70;;;;;;;1.14;87.91;98219.81;2194556;80;21113;-84
2020/12/07 01:14:31;;;;;;;23.83;13.85;;;;;;;1.07;88.12;98203.23;2220984;79;21277;-84
2020/12/07 01:17:32;;;;;;;26.68;14.95;;;;;;;1.05;88.20;98208.53;2214488;79;21262;-86
2020/12/07 01:20:33;;;;;;;21.20;13.30;;;;;;;1.04;88.29;98212.06;2210358;79;21678;-84
2020/12/07 01:23:34;;;;;;;12.40;9.33;;;;;;;1.03;88.28;98209.14;2228952;79;21325;-86
2020/12/07 01:26:36;;;;;;;19.70;12.75;;;;;;;1.08;88.05;98212.59;2208126;79;21257;-85
2020/12/07 01:29:37;;;;;;;23.75;13.38;;;;;;;1.13;87.94;98216.90;2199631;79;21269;-85
2020/12/07 01:32:38;;;;;;;15.93;11.20;;;;;;;1.15;87.80;98204.68;2179048;79;21123;-84
2020/12/07 01:35:42;;;;;;;20.02;12.28;;;;;;;1.15;87.68;98211.13;2189709;79;21318;-86
2020/12/07 01:38:43;;;;;;;21.30;13.10;;;;;;;1.11;87.68;98205.43;2222800;79;21633;-86
2020/12/07 01:41:44;;;;;;;17.57;12.82;;;;;;;1.07;87.75;98183.42;2223221;79;21259;-84
2020/12/07 01:44:45;;;;;;;16.05;10.32;;;;;;;1.04;87.90;98189.33;2215188;79;21249;-85
2020/12/07 01:47:46;;;;;;;17.80;11.38;;;;;;;1.01;87.88;98200.73;2196455;79;21356;-88
2020/12/07 01:50:47;;;;;;;17.20;11.08;;;;;;;0.98;87.92;98181.63;2195095;79;21282;-85
2020/12/07 01:53:49;;;;;;;13.98;9.38;;;;;;;0.90;88.16;98193.08;2204232;79;21583;-86
2020/12/07 01:56:51;;;;;;;13.60;9.40;;;;;;;0.89;88.25;98172.11;2188506;79;21304;-85
2020/12/07 01:59:52;;;;;;;16.20;9.33;;;;;;;0.89;88.35;98162.27;2201930;79;21281;-86
2020/12/07 02:02:54;;;;;;;16.30;10.68;;;;;;;0.86;88.24;98155.63;2190393;80;21243;-84
2020/12/07 02:05:55;;;;;;;17.27;11.65;;;;;;;0.84;88.20;98149.32;2201843;79;21702;-85
2020/12/07 02:08:56;;;;;;;13.72;10.28;;;;;;;0.83;88.31;98158.00;2175819;80;21241;-85
2020/12/07 02:11:57;;;;;;;12.25;8.40;;;;;;;0.77;88.47;98148.21;2186671;79;21246;-86
2020/12/07 02:14:58;;;;;;;15.95;10.55;;;;;;;0.78;88.33;98160.15;2216134;79;21716;-87
2020/12/07 02:17:59;;;;;;;17.67;11.85;;;;;;;0.78;88.25;98149.03;2194013;79;21242;-85
2020/12/07 02:21:01;;;;;;;15.93;10.72;;;;;;;0.75;88.11;98151.88;2205446;80;21255;-86
2020/12/07 02:24:02;;;;;;;15.10;9.93;;;;;;;0.75;88.30;98152.69;2202288;79;21691;-85
2020/12/07 02:27:03;;;;;;;19.50;10.90;;;;;;;0.73;88.26;98166.63;2181143;79;21257;-85
2020/12/07 02:30:04;;;;;;;16.10;10.03;;;;;;;0.70;88.32;98142.42;2211634;80;21250;-85
2020/12/07 02:33:05;;;;;;;16.25;10.85;;;;;;;0.68;88.31;98141.27;2197661;79;21261;-84
2020/12/07 02:36:06;;;;;;;21.30;11.10;;;;;;;0.63;88.43;98133.10;2189537;80;21669;-85
2020/12/07 02:39:08;;;;;;;15.80;9.43;;;;;;;0.65;88.19;98146.69;2229527;79;21104;-85
2020/12/07 02:42:09;;;;;;;14.70;9.40;;;;;;;0.67;88.12;98151.71;2224371;79;21287;-85
2020/12/07 02:45:10;;;;;;;12.58;9.40;;;;;;;0.68;88.02;98164.94;2195738;79;21693;-85
2020/12/07 02:48:11;;;;;;;18.37;10.72;;;;;;;0.69;88.05;98168.66;2197455;79;21255;-85
2020/12/07 02:51:12;;;;;;;16.73;11.63;;;;;;;0.74;87.91;98185.85;2203677;79;21307;-86
2020/12/07 02:54:13;;;;;;;17.15;10.70;;;;;;;0.80;87.83;98182.73;2210091;79;21235;-86
2020/12/07 02:57:14;;;;;;;17.00;10.80;;;;;;;0.87;87.50;98195.11;2183457;80;21160;-85
2020/12/07 03:00:16;;;;;;;13.58;9.60;;;;;;;0.94;87.43;98203.95;2185440;79;21250;-86
2020/12/07 03:03:17;;;;;;;15.98;10.38;;;;;;;1.00;87.30;98208.56;2185450;79;21250;-86
2020/12/07 03:06:18;;;;;;;12.18;6.37;;;;;;;1.02;86.59;98190.75;2232325;79;21276;-85
2020/12/07 03:09:20;;;;;;;14.58;8.93;;;;;;;1.00;86.34;98186.66;2199899;79;21336;-87
2020/12/07 03:12:21;;;;;;;13.50;9.10;;;;;;;0.96;86.41;98187.87;2183028;79;21126;-88
2020/12/07 03:15:22;;;;;;;13.28;9.60;;;;;;;0.93;86.39;98181.70;2234297;79;21128;-87
2020/12/07 03:18:24;;;;;;;14.98;9.28;;;;;;;0.90;86.66;98179.37;2196850;79;21124;-87
2020/12/07 03:21:25;;;;;;;14.28;10.13;;;;;;;0.85;86.46;98167.70;2217156;80;21274;-86
2020/12/07 03:24:26;;;;;;;12.75;8.63;;;;;;;0.82;86.66;98172.28;2203763;79;21652;-85
2020/12/07 03:27:27;;;;;;;14.83;9.33;;;;;;;0.78;86.63;98169.64;2206622;80;21700;-86
2020/12/07 03:30:28;;;;;;;12.63;8.75;;;;;;;0.71;86.79;98151.78;2194627;79;21243;-84
2020/12/07 03:33:30;;;;;;;12.88;8.68;;;;;;;0.64;86.80;98153.23;2194375;79;21287;-86
2020/12/07 03:36:31;;;;;;;12.07;8.70;;;;;;;0.59;87.02;98152.36;2207443;79;21132;-84
2020/12/07 03:39:32;;;;;;;14.60;9.58;;;;;;;0.56;87.05;98161.64;2182493;79;21250;-85
2020/12/07 03:42:33;;;;;;;16.82;9.83;;;;;;;0.54;87.14;98166.09;2221415;80;22148;-86
2020/12/07 03:45:35;;;;;;;8.90;6.37;;;;;;;0.50;87.21;98163.44;2192942;79;21289;-86
2020/12/07 03:48:36;;;;;;;12.90;8.58;;;;;;;0.50;87.18;98190.49;2198286;80;21261;-86
2020/12/07 03:51:37;;;;;;;11.97;9.53;;;;;;;0.46;87.33;98179.64;2185400;79;21293;-86
2020/12/07 03:54:38;;;;;;;18.42;9.88;;;;;;;0.44;87.31;98176.35;2191981;80;21258;-86
2020/12/07 03:57:42;;;;;;;14.43;10.13;;;;;;;0.45;87.26;98183.61;2205250;80;21281;-88
2020/12/07 04:00:43;;;;;;;15.13;10.08;;;;;;;0.48;86.92;98188.52;2181014;79;21686;-85
2020/12/07 04:03:45;;;;;;;12.80;9.08;;;;;;;0.47;87.08;98186.42;2181091;79;21263;-88
2020/12/07 04:06:48;;;;;;;14.55;9.03;;;;;;;0.48;87.00;98189.34;2185274;80;21559;-85
2020/12/07 04:09:49;;;;;;;16.42;11.03;;;;;;;0.46;87.06;98193.00;2180958;80;21265;-83
2020/12/07 04:12:50;;;;;;;16.45;10.90;;;;;;;0.45;87.23;98183.13;2189727;79;21278;-82
2020/12/07 04:15:51;;;;;;;12.00;7.60;;;;;;;0.41;87.16;98170.66;2206578;79;21271;-85
2020/12/07 04:18:52;;;;;;;15.80;10.82;;;;;;;0.42;87.14;98166.66;2203147;79;21287;-84
2020/12/07 04:21:53;;;;;;;17.20;11.48;;;;;;;0.39;87.01;98159.20;2206304;79;21255;-87
2020/12/07 04:24:54;;;;;;;13.30;9.53;;;;;;;0.40;86.99;98166.45;2211501;79;21308;-84
2020/12/07 04:27:55;;;;;;;10.45;7.80;;;;;;;0.39;87.01;98178.98;2210869;79;21715;-86
2020/12/07 04:30:57;;;;;;;14.80;9.03;;;;;;;0.33;87.05;98157.13;2198660;80;21271;-84
2020/12/07 04:33:58;;;;;;;13.43;9.28;;;;;;;0.28;87.18;98163.97;2181189;79;21281;-83
2020/12/07 04:36:59;;;;;;;11.40;7.72;;;;;;;0.29;87.16;98164.78;2188154;79;21678;-86
2020/12/07 04:40:00;;;;;;;13.70;9.98;;;;;;;0.28;87.22;98153.66;2207135;79;21671;-85
2020/12/07 04:43:01;;;;;;;15.50;10.65;;;;;;;0.27;87.08;98141.73;2192424;80;21524;-85
2020/12/07 04:46:03;;;;;;;11.03;7.83;;;;;;;0.28;87.14;98156.71;2150127;81;21261;-84
2020/12/07 04:49:04;;;;;;;18.92;12.23;;;;;;;0.31;87.01;98147.91;2177868;79;21471;-84
2020/12/07 04:52:05;;;;;;;15.83;10.85;;;;;;;0.28;86.94;98153.66;2209676;79;21688;-85
2020/12/07 04:55:06;;;;;;;15.90;8.63;;;;;;;0.27;86.95;98156.34;2217029;79;21521;-84
2020/12/07 04:58:07;;;;;;;13.43;9.28;;;;;;;0.22;86.98;98145.16;2194892;80;21563;-86
2020/12/07 05:01:09;;;;;;;15.18;9.08;;;;;;;0.17;87.10;98135.70;2177745;79;21143;-83
2020/12/07 05:04:10;;;;;;;17.27;11.15;;;;;;;0.08;87.44;98136.94;2213871;79;21267;-86
2020/12/07 05:07:11;;;;;;;17.02;10.75;;;;;;;0.05;87.44;98109.70;2193746;79;21588;-86
2020/12/07 05:10:15;;;;;;;19.50;9.50;;;;;;;0.03;87.51;98132.19;2196283;79;21254;-84
2020/12/07 05:13:24;;;;;;;14.83;8.88;;;;;;;-0.01;87.59;98142.38;2180882;79;21119;-84
2020/12/07 05:16:21;;;;;;;17.62;11.45;;;;;;;-0.02;87.63;98141.56;2186905;80;21556;-85
2020/12/07 05:19:23;;;;;;;17.20;11.10;;;;;;;-0.02;87.75;98124.83;2216560;79;21672;-84
2020/12/07 05:22:24;;;;;;;19.15;11.65;;;;;;;-0.05;87.98;98129.42;2217381;79;21117;-84
2020/12/07 05:25:25;;;;;;;16.93;11.12;;;;;;;-0.05;87.80;98134.58;2180725;79;21566;-86
2020/12/07 05:28:28;;;;;;;12.35;7.80;;;;;;;-0.02;87.77;98131.27;2178073;79;21237;-85
2020/12/07 05:31:29;;;;;;;17.65;11.25;;;;;;;0.00;87.77;98115.72;2178708;79;21152;-84
2020/12/07 05:34:31;;;;;;;19.65;9.35;;;;;;;-0.02;87.90;98127.41;2208808;79;21241;-85
2020/12/07 05:37:32;;;;;;;14.33;9.68;;;;;;;-0.03;88.03;98123.67;2180352;79;21274;-87
2020/12/07 05:40:33;;;;;;;14.15;9.78;;;;;;;-0.02;87.85;98138.98;2195473;79;21258;-83
2020/12/07 05:43:34;;;;;;;15.08;9.53;;;;;;;-0.03;87.75;98131.39;2226720;79;21249;-86
2020/12/07 05:46:46;;;;;;;17.17;9.73;;;;;;;-0.04;87.85;98120.28;2209557;79;21237;-85
2020/12/07 05:49:47;;;;;;;15.72;10.00;;;;;;;-0.04;87.91;98125.91;2195509;79;21230;-85
2020/12/07 05:52:49;;;;;;;14.45;9.65;;;;;;;-0.07;87.99;98132.60;2181104;79;21130;-86
2020/12/07 05:55:50;;;;;;;15.58;9.83;;;;;;;-0.08;88.16;98132.27;2196616;79;21255;-86
2020/12/07 05:58:51;;;;;;;21.50;11.95;;;;;;;-0.09;88.01;98128.88;2198748;79;21132;-84
2020/12/07 06:01:52;;;;;;;19.00;10.80;;;;;;;-0.11;88.06;98128.16;2214949;79;21187;-82
2020/12/07 06:04:53;;;;;;;15.65;10.30;;;;;;;-0.14;88.32;98123.28;2168938;80;21282;-85
2020/12/07 06:07:55;;;;;;;16.32;11.75;;;;;;;-0.13;88.21;98121.05;2183839;79;21564;-84
2020/12/07 06:10:56;;;;;;;17.85;11.33;;;;;;;-0.11;88.21;98133.78;2221599;79;21265;-84
2020/12/07 06:13:57;;;;;;;20.10;11.35;;;;;;;-0.11;88.25;98142.79;2201406;80;21718;-86
2020/12/07 06:16:59;;;;;;;15.95;10.60;;;;;;;-0.10;88.11;98134.13;2202543;79;21281;-82
2020/12/07 06:20:00;;;;;;;20.75;11.73;;;;;;;-0.08;88.13;98137.41;2184763;79;21160;-83
2020/12/07 06:23:01;;;;;;;12.50;9.50;;;;;;;-0.12;88.46;98143.27;2212674;79;21654;-80
2020/12/07 06:26:03;;;;;;;18.85;11.55;;;;;;;-0.09;88.25;98135.75;2197803;79;21246;-81
2020/12/07 06:29:05;;;;;;;18.05;13.08;;;;;;;-0.09;88.37;98143.03;2203786;79;21123;-84
2020/12/07 06:32:06;;;;;;;18.27;11.65;;;;;;;-0.10;88.41;98145.70;2197625;80;21644;-83
2020/12/07 06:35:07;;;;;;;15.90;10.23;;;;;;;-0.07;88.24;98154.48;2209887;79;21180;-82
2020/12/07 06:38:09;;;;;;;16.87;10.65;;;;;;;-0.07;88.27;98154.01;2222259;79;21147;-82
2020/12/07 06:41:10;;;;;;;18.40;12.00;;;;;;;-0.03;88.12;98142.98;2206348;79;21317;-83
2020/12/07 06:44:12;;;;;;;14.73;10.28;;;;;;;-0.02;88.05;98158.29;2209289;79;21260;-80
2020/12/07 06:47:15;;;;;;;16.50;10.85;;;;;;;-0.01;88.19;98152.20;2207999;79;21593;-78
2020/12/07 06:50:17;;;;;;;16.02;11.12;;;;;;;0.03;87.92;98147.63;2217015;79;21261;-81
2020/12/07 06:53:21;;;;;;;15.38;10.82;;;;;;;0.05;87.87;98157.32;2210796;80;21688;-80
2020/12/07 06:56:22;;;;;;;17.02;11.33;;;;;;;0.10;87.63;98148.77;2200943;80;21317;-80
2020/12/07 06:59:25;;;;;;;16.15;9.93;;;;;;;0.14;87.63;98154.45;2201443;79;21139;-78
2020/12/07 07:02:26;;;;;;;17.50;11.95;;;;;;;0.15;87.51;98161.23;2156161;80;21289;-79
2020/12/07 07:05:29;;;;;;;16.20;10.43;;;;;;;0.22;87.44;98171.37;2120474;82;21567;-79
2020/12/07 07:08:30;;;;;;;15.90;11.40;;;;;;;0.25;87.06;98163.39;2119164;83;21258;-76
2020/12/07 07:11:31;;;;;;;10.80;7.70;;;;;;;0.25;87.02;98157.77;2126129;82;21130;-78
2020/12/07 07:14:32;;;;;;;13.18;10.48;;;;;;;0.32;87.20;98171.42;2117522;83;21717;-77
2020/12/07 07:17:34;;;;;;;16.82;11.30;;;;;;;0.34;86.85;98165.20;2132318;81;21286;-79
2020/12/07 07:20:35;;;;;;;14.38;7.83;;;;;;;0.42;86.63;98163.27;2142217;82;21109;-75
2020/12/07 07:23:36;;;;;;;15.80;10.05;;;;;;;0.44;86.64;98169.10;2138937;83;21495;-75
2020/12/07 07:26:42;;;;;;;12.18;9.63;;;;;;;0.53;86.59;98170.91;2125751;81;21111;-80
2020/12/07 07:29:41;;;;;;;18.32;12.80;;;;;;;0.61;86.25;98174.13;2128411;81;21313;-75
2020/12/07 07:32:42;;;;;;;17.27;11.50;;;;;;;0.65;85.94;98162.63;2116562;83;21150;-75
2020/12/07 07:35:43;;;;;;;12.45;8.50;;;;;;;0.71;85.98;98164.66;2127763;81;21683;-75
2020/12/07 07:38:44;;;;;;;17.37;12.15;;;;;;;0.77;85.67;98177.84;2088868;84;21182;-73
2020/12/07 07:41:45;;;;;;;19.62;11.55;;;;;;;0.79;85.41;98160.96;2084741;84;21685;-73
2020/12/07 07:44:47;;;;;;;13.78;10.95;;;;;;;0.86;85.35;98160.78;2083787;84;21303;-73
2020/12/07 07:47:54;;;;;;;17.70;11.88;;;;;;;0.91;84.86;98156.03;2093462;84;21122;-75
2020/12/07 07:51:10;;;;;;;16.05;10.72;;;;;;;0.96;84.85;98186.59;2098219;84;21241;-74
2020/12/07 07:54:28;;;;;;;16.23;11.33;;;;;;;0.99;84.47;98170.38;2096297;83;21082;-76
2020/12/07 07:58:15;;;;;;;14.60;10.08;;;;;;;1.08;84.47;98171.34;2082259;84;21147;-84
2020/12/07 08:17:37;;;;;;;21.02;12.13;;;;;;;1.43;83.42;98188.44;2178447;81;21339;-80
2020/12/07 08:20:40;;;;;;;14.83;9.63;;;;;;;1.54;83.13;98181.50;2159160;81;21286;-81
2020/12/07 08:23:43;;;;;;;14.15;11.35;;;;;;;1.62;82.46;98177.78;2138726;82;21128;-77
2020/12/07 08:26:44;;;;;;;16.95;11.85;;;;;;;1.64;82.11;98197.80;2148801;81;21149;-76
2020/12/07 08:29:46;;;;;;;22.75;11.38;;;;;;;1.64;82.21;98193.45;2162094;81;21693;-77
2020/12/07 08:32:47;;;;;;;16.85;11.73;;;;;;;1.70;81.59;98205.83;2161989;81;21294;-79
2020/12/07 08:35:49;;;;;;;21.62;11.93;;;;;;;1.70;81.23;98201.14;2156167;81;21305;-75
